KMSY

Louis Armstrong New Orleans International Airport

New Orleans, Louisiana, USA
METAR KMSY 171353Z 22003KT 8SM BKN250 09/08 A3030 RMK AO2 SLP263 T00890083
Observed Flight Rules
Dec-17 @ 13:53 UTC (37 minutes ago) Visual Flight Rules
Wind Visibility Clouds
220° at 3 knots 8 miles
  • Broken at 25,000' AGL
Temperatures Readings
Current 9°C / 48°F
Dewpoint 8°C / 46°F
Humidity 94%
Altimeter 30.3" Hg
Pressure 1026.3 hPa
Elevation 5
METAR KMSY 171353Z 22003KT 8SM BKN250 09/08 A3030 RMK AO2 SLP263 T00890083
Observed Flight Rules
Dec-17 @ 13:53 UTC
(37 minutes ago)
VFR
Wind Visibility
220° at 3 knots 8 miles
Clouds
  • Broken at 25,000' AGL
Temperature Dewpoint
9°C / 48°F 8°C / 46°F
Humidity Altimeter Pressure
94% 30.3" Hg 1026.3 hPa